Time;durP1;ratioP1;P1;durP2;ratioP2;P2;SDS_P1;SDS_P2;PMS_P1;PMS_P2;Temp;Humidity;BMP_temperature;BMP_pressure;BME280_temperature;BME280_humidity;BME280_pressure;Samples;Min_cycle;Max_cycle;Signal;HPM_P1;HPM_P2
2023/08/06 00:00:27;;;;;;;2.67;1.60;;;;;;;;;;5071883;28;20104;-80
2023/08/06 00:02:53;;;;;;;3.38;1.90;;;;;;;;;;5070790;28;20060;-78
2023/08/06 00:05:21;;;;;;;2.67;1.70;;;;;;;;;;5068086;28;20055;-79
2023/08/06 00:07:50;;;;;;;3.45;1.70;;;;;;;;;;5054653;28;20416;-79
2023/08/06 00:10:16;;;;;;;1.77;1.55;;;;;;;;;;5058893;28;20099;-79
2023/08/06 00:12:42;;;;;;;3.22;1.83;;;;;;;;;;5054101;28;20033;-79
2023/08/06 00:15:08;;;;;;;2.53;1.60;;;;;;;;;;5051988;28;20039;-79
2023/08/06 00:17:35;;;;;;;1.52;1.27;;;;;;;;;;5053898;28;20028;-78
2023/08/06 00:20:04;;;;;;;2.40;1.60;;;;;;;;;;5063995;28;20111;-79
2023/08/06 00:22:31;;;;;;;1.88;1.48;;;;;;;;;;5061459;28;20043;-78
2023/08/06 00:24:57;;;;;;;1.52;1.42;;;;;;;;;;5054354;28;20112;-78
2023/08/06 00:27:23;;;;;;;3.45;1.58;;;;;;;;;;5059694;28;20547;-78
2023/08/06 00:29:49;;;;;;;2.25;1.80;;;;;;;;;;5069358;28;20021;-78
2023/08/06 00:32:15;;;;;;;1.95;1.70;;;;;;;;;;5058425;28;20090;-78
2023/08/06 00:34:44;;;;;;;1.88;1.30;;;;;;;;;;5071445;28;20021;-78
2023/08/06 00:37:10;;;;;;;3.17;1.65;;;;;;;;;;5056920;28;20043;-78
2023/08/06 00:39:36;;;;;;;2.78;1.50;;;;;;;;;;5071271;28;20025;-78
2023/08/06 00:42:02;;;;;;;3.47;1.85;;;;;;;;;;5071092;28;20027;-78
2023/08/06 00:44:28;;;;;;;2.22;1.73;;;;;;;;;;5071334;28;20063;-78
2023/08/06 00:46:54;;;;;;;2.30;1.55;;;;;;;;;;5070083;28;20021;-78
2023/08/06 00:49:20;;;;;;;2.38;1.48;;;;;;;;;;5065410;28;20135;-78
2023/08/06 00:51:46;;;;;;;2.17;1.55;;;;;;;;;;5071341;28;20522;-78
2023/08/06 00:54:12;;;;;;;1.92;1.58;;;;;;;;;;5069496;28;20031;-78
2023/08/06 00:56:38;;;;;;;2.65;1.92;;;;;;;;;;5058042;28;20119;-78
2023/08/06 00:59:06;;;;;;;1.65;1.40;;;;;;;;;;5065521;28;20218;-78
2023/08/06 01:01:32;;;;;;;1.85;1.50;;;;;;;;;;5082577;28;20028;-78
2023/08/06 01:03:58;;;;;;;2.45;1.50;;;;;;;;;;5065073;28;20033;-78
2023/08/06 01:06:35;;;;;;;1.75;1.50;;;;;;;;;;5070792;28;20029;-78
2023/08/06 01:09:16;;;;;;;1.73;1.30;;;;;;;;;;5056698;28;20037;-79
2023/08/06 01:11:52;;;;;;;2.30;1.58;;;;;;;;;;5067191;28;20029;-78
2023/08/06 01:14:23;;;;;;;1.33;1.23;;;;;;;;;;5056981;28;20104;-78
2023/08/06 01:16:51;;;;;;;2.15;1.63;;;;;;;;;;5050726;28;20406;-78
2023/08/06 01:19:18;;;;;;;2.78;1.73;;;;;;;;;;5060896;28;20028;-78
2023/08/06 01:21:44;;;;;;;2.17;1.48;;;;;;;;;;5066764;28;20075;-78
2023/08/06 01:24:10;;;;;;;2.30;1.35;;;;;;;;;;5058094;28;20029;-78
2023/08/06 01:26:39;;;;;;;1.73;1.40;;;;;;;;;;5060028;28;20036;-78
2023/08/06 01:29:27;;;;;;;1.65;1.35;;;;;;;;;;5056924;28;20024;-78
2023/08/06 01:31:53;;;;;;;1.60;1.38;;;;;;;;;;5056236;28;20424;-78
2023/08/06 01:34:23;;;;;;;2.58;2.00;;;;;;;;;;5057386;28;20120;-79
2023/08/06 01:36:49;;;;;;;5.15;2.00;;;;;;;;;;5056255;28;20024;-79
2023/08/06 01:39:15;;;;;;;2.53;1.83;;;;;;;;;;5054665;28;20091;-79
2023/08/06 01:41:41;;;;;;;2.65;1.90;;;;;;;;;;5050422;28;20076;-79
2023/08/06 01:44:07;;;;;;;2.50;1.63;;;;;;;;;;5052961;28;20029;-79
2023/08/06 01:46:33;;;;;;;1.83;1.70;;;;;;;;;;5058310;28;20033;-79
2023/08/06 01:48:59;;;;;;;2.05;1.75;;;;;;;;;;5050168;28;21180;-79
2023/08/06 01:51:25;;;;;;;1.92;1.65;;;;;;;;;;5063428;28;20384;-78
2023/08/06 01:53:51;;;;;;;3.30;1.90;;;;;;;;;;5052541;28;20033;-78
2023/08/06 01:56:17;;;;;;;2.20;1.73;;;;;;;;;;5062550;28;20029;-78
2023/08/06 01:58:43;;;;;;;1.92;1.40;;;;;;;;;;5051703;28;20822;-78
2023/08/06 02:01:08;;;;;;;2.40;1.67;;;;;;;;;;5051621;28;20029;-78
2023/08/06 02:03:34;;;;;;;2.35;1.50;;;;;;;;;;5049914;28;20021;-78
2023/08/06 02:06:00;;;;;;;1.83;1.58;;;;;;;;;;5060386;28;20455;-78
2023/08/06 02:08:27;;;;;;;2.08;1.77;;;;;;;;;;5067845;28;20025;-78
2023/08/06 02:10:53;;;;;;;2.05;1.80;;;;;;;;;;5063541;28;20074;-78
2023/08/06 02:13:19;;;;;;;1.85;1.55;;;;;;;;;;5069155;28;20024;-78
2023/08/06 02:15:49;;;;;;;1.92;1.70;;;;;;;;;;5060656;28;20755;-78
2023/08/06 02:18:15;;;;;;;1.95;1.50;;;;;;;;;;5049459;28;20029;-78
2023/08/06 02:20:41;;;;;;;2.40;1.63;;;;;;;;;;5049202;28;20126;-78
2023/08/06 02:23:07;;;;;;;1.85;1.60;;;;;;;;;;5059710;28;20034;-78
2023/08/06 02:25:33;;;;;;;2.70;1.88;;;;;;;;;;5053637;28;20228;-78
2023/08/06 02:27:59;;;;;;;1.73;1.52;;;;;;;;;;5068353;28;20028;-78
2023/08/06 02:30:25;;;;;;;3.33;1.80;;;;;;;;;;5056613;28;20021;-78
2023/08/06 02:32:51;;;;;;;2.17;1.60;;;;;;;;;;5054563;28;20028;-78
2023/08/06 02:35:17;;;;;;;2.75;1.83;;;;;;;;;;5054401;28;20039;-78
2023/08/06 02:37:43;;;;;;;1.92;1.42;;;;;;;;;;5060603;28;20036;-78
2023/08/06 02:40:09;;;;;;;1.95;1.40;;;;;;;;;;5054710;28;20028;-78
2023/08/06 02:42:35;;;;;;;1.65;1.25;;;;;;;;;;5048681;28;20082;-78
2023/08/06 02:45:01;;;;;;;2.13;1.60;;;;;;;;;;5060858;28;20033;-77
2023/08/06 02:47:27;;;;;;;1.98;1.15;;;;;;;;;;5049300;28;20013;-78
2023/08/06 02:49:53;;;;;;;2.38;1.70;;;;;;;;;;5051727;28;20038;-77
2023/08/06 02:52:19;;;;;;;1.50;1.38;;;;;;;;;;5049630;28;20040;-78
2023/08/06 02:54:45;;;;;;;2.20;1.70;;;;;;;;;;5064578;28;20388;-78
2023/08/06 02:57:11;;;;;;;2.50;1.60;;;;;;;;;;5067524;28;20051;-78
2023/08/06 02:59:37;;;;;;;1.60;1.48;;;;;;;;;;5053133;28;20024;-78
2023/08/06 03:02:03;;;;;;;1.58;1.40;;;;;;;;;;5059463;28;20036;-78
2023/08/06 03:04:29;;;;;;;1.60;1.50;;;;;;;;;;5056814;28;20041;-78
2023/08/06 03:06:55;;;;;;;1.40;1.25;;;;;;;;;;5059076;28;20371;-78
2023/08/06 03:09:21;;;;;;;2.22;1.60;;;;;;;;;;5050905;28;20403;-78
2023/08/06 03:11:47;;;;;;;2.63;1.80;;;;;;;;;;5059369;28;20032;-78
2023/08/06 03:14:13;;;;;;;2.08;1.75;;;;;;;;;;5057177;28;20029;-78
2023/08/06 03:16:39;;;;;;;1.85;1.50;;;;;;;;;;5049944;28;20379;-79
2023/08/06 03:19:05;;;;;;;2.30;1.80;;;;;;;;;;5056804;28;20055;-79
2023/08/06 03:21:31;;;;;;;1.58;1.48;;;;;;;;;;5066456;28;20128;-78
2023/08/06 03:23:57;;;;;;;2.55;1.63;;;;;;;;;;5055109;28;20395;-78
2023/08/06 03:26:26;;;;;;;1.67;1.45;;;;;;;;;;5056555;28;20025;-78
2023/08/06 03:28:52;;;;;;;2.28;1.60;;;;;;;;;;5052599;28;20111;-78
2023/08/06 03:31:18;;;;;;;1.77;1.50;;;;;;;;;;5068105;28;20016;-78
2023/08/06 03:33:43;;;;;;;2.13;1.58;;;;;;;;;;5070507;28;20467;-79
2023/08/06 03:36:09;;;;;;;2.30;1.63;;;;;;;;;;5065333;28;20398;-78
2023/08/06 03:38:35;;;;;;;1.58;1.38;;;;;;;;;;5063085;28;20036;-79
2023/08/06 03:41:01;;;;;;;2.83;1.75;;;;;;;;;;5057394;28;20033;-79
2023/08/06 03:43:27;;;;;;;2.05;1.45;;;;;;;;;;5062127;28;20062;-79
2023/08/06 03:45:53;;;;;;;1.70;1.60;;;;;;;;;;5058647;28;20110;-79
2023/08/06 03:48:19;;;;;;;2.65;1.48;;;;;;;;;;5060104;28;20036;-79
2023/08/06 03:50:45;;;;;;;2.08;1.40;;;;;;;;;;5064749;28;20024;-79
2023/08/06 03:53:11;;;;;;;2.13;1.63;;;;;;;;;;5063674;28;20025;-78
2023/08/06 03:55:37;;;;;;;3.42;1.80;;;;;;;;;;5052435;28;20131;-79
2023/08/06 03:58:03;;;;;;;2.78;2.15;;;;;;;;;;5058481;28;20031;-79
2023/08/06 04:00:29;;;;;;;1.50;1.23;;;;;;;;;;5062550;28;20562;-79
2023/08/06 04:02:55;;;;;;;1.75;1.52;;;;;;;;;;5051464;28;20036;-79
2023/08/06 04:05:21;;;;;;;1.88;1.63;;;;;;;;;;5052310;28;20036;-79
2023/08/06 04:07:47;;;;;;;2.97;1.77;;;;;;;;;;5059130;28;20074;-78
2023/08/06 04:10:13;;;;;;;1.92;1.20;;;;;;;;;;5064687;28;20024;-79
2023/08/06 04:12:39;;;;;;;1.30;1.20;;;;;;;;;;5055998;28;20024;-79
2023/08/06 04:15:05;;;;;;;2.45;1.48;;;;;;;;;;5051895;28;20596;-79
2023/08/06 04:17:31;;;;;;;1.50;1.38;;;;;;;;;;5059742;28;20033;-79
2023/08/06 04:19:58;;;;;;;2.90;1.65;;;;;;;;;;5068112;28;20462;-79
2023/08/06 04:22:25;;;;;;;1.50;1.40;;;;;;;;;;5058809;28;20579;-79
2023/08/06 04:24:51;;;;;;;1.83;1.30;;;;;;;;;;5051557;28;20041;-79
2023/08/06 04:27:18;;;;;;;1.50;1.35;;;;;;;;;;5051922;28;20441;-79
2023/08/06 04:29:44;;;;;;;1.60;1.30;;;;;;;;;;5064116;28;20025;-79
2023/08/06 04:32:10;;;;;;;1.40;1.30;;;;;;;;;;5069385;28;20024;-79
2023/08/06 04:34:36;;;;;;;2.00;1.50;;;;;;;;;;5070877;28;20103;-79
2023/08/06 04:37:03;;;;;;;1.33;1.20;;;;;;;;;;5050925;28;20037;-79
2023/08/06 04:39:29;;;;;;;1.70;1.42;;;;;;;;;;5051239;28;20107;-79
2023/08/06 04:41:57;;;;;;;3.28;1.30;;;;;;;;;;5051636;28;20044;-79
2023/08/06 04:44:23;;;;;;;2.45;1.90;;;;;;;;;;5051567;28;20116;-79
2023/08/06 04:46:49;;;;;;;1.73;1.40;;;;;;;;;;5053469;28;20179;-79
2023/08/06 04:49:15;;;;;;;1.63;1.42;;;;;;;;;;5065335;28;20025;-79
2023/08/06 04:51:41;;;;;;;1.35;1.25;;;;;;;;;;5051609;28;20479;-79
2023/08/06 04:54:07;;;;;;;1.85;1.30;;;;;;;;;;5058938;28;20021;-79
2023/08/06 04:56:33;;;;;;;1.55;1.40;;;;;;;;;;5062878;28;20020;-79
2023/08/06 04:58:59;;;;;;;1.30;1.20;;;;;;;;;;5055204;28;20184;-79
2023/08/06 05:01:25;;;;;;;3.58;1.20;;;;;;;;;;5063222;28;20108;-79
2023/08/06 05:03:51;;;;;;;1.67;1.13;;;;;;;;;;5059308;28;20131;-79
2023/08/06 05:06:17;;;;;;;1.38;1.10;;;;;;;;;;5058979;28;20033;-79
2023/08/06 05:08:43;;;;;;;1.73;1.40;;;;;;;;;;5063260;28;20105;-79
2023/08/06 05:11:10;;;;;;;1.80;1.20;;;;;;;;;;5061127;28;20028;-79
2023/08/06 05:13:36;;;;;;;1.55;1.42;;;;;;;;;;5064909;28;20028;-80
2023/08/06 05:16:02;;;;;;;1.60;1.30;;;;;;;;;;5062798;28;20029;-79
2023/08/06 05:18:28;;;;;;;1.17;1.08;;;;;;;;;;5050994;28;20040;-79
2023/08/06 05:20:54;;;;;;;1.58;1.40;;;;;;;;;;5051753;28;20049;-79
2023/08/06 05:23:20;;;;;;;1.55;1.30;;;;;;;;;;5068765;28;20048;-79
2023/08/06 05:25:46;;;;;;;2.53;1.60;;;;;;;;;;5059674;28;20036;-79
2023/08/06 05:28:12;;;;;;;1.42;1.33;;;;;;;;;;5056107;28;20031;-79
2023/08/06 05:30:41;;;;;;;1.30;1.20;;;;;;;;;;5052044;28;20486;-79
2023/08/06 05:33:07;;;;;;;1.95;1.30;;;;;;;;;;5050805;28;20045;-79
2023/08/06 05:35:33;;;;;;;1.50;1.30;;;;;;;;;;5059151;28;20372;-79
2023/08/06 05:37:59;;;;;;;2.80;1.25;;;;;;;;;;5056437;28;20067;-79
2023/08/06 05:40:25;;;;;;;1.63;1.30;;;;;;;;;;5070399;28;20522;-79
2023/08/06 05:42:52;;;;;;;1.85;1.35;;;;;;;;;;5062379;28;20025;-79
2023/08/06 05:45:18;;;;;;;2.35;1.38;;;;;;;;;;5054432;28;20254;-79
2023/08/06 05:47:44;;;;;;;3.20;1.48;;;;;;;;;;5067839;28;20110;-79
2023/08/06 05:50:10;;;;;;;1.13;1.02;;;;;;;;;;5064076;28;20491;-79
2023/08/06 05:52:36;;;;;;;1.85;1.35;;;;;;;;;;5055011;28;20539;-79
2023/08/06 05:55:02;;;;;;;1.65;1.23;;;;;;;;;;5056513;28;20104;-79
2023/08/06 05:57:28;;;;;;;1.27;1.17;;;;;;;;;;5050028;28;20025;-79
2023/08/06 05:59:54;;;;;;;1.35;1.25;;;;;;;;;;5054787;28;20029;-79
2023/08/06 06:02:20;;;;;;;1.83;1.27;;;;;;;;;;5060354;28;20028;-80
2023/08/06 06:04:46;;;;;;;1.55;1.25;;;;;;;;;;5055746;28;20037;-79
2023/08/06 06:07:17;;;;;;;1.73;1.35;;;;;;;;;;5052772;28;20025;-79
2023/08/06 06:09:43;;;;;;;;;;;;;;;;;;5051698;28;20029;-79
2023/08/06 06:12:09;;;;;;;2.10;1.60;;;;;;;;;;5068269;28;19951;-79
2023/08/06 06:14:35;;;;;;;1.00;0.88;;;;;;;;;;5051329;28;20028;-79
2023/08/06 06:17:01;;;;;;;1.35;1.10;;;;;;;;;;5059049;28;20032;-79
2023/08/06 06:19:27;;;;;;;1.65;1.30;;;;;;;;;;5060511;28;20032;-79
2023/08/06 06:21:53;;;;;;;1.95;1.60;;;;;;;;;;5057570;28;20056;-79
2023/08/06 06:24:19;;;;;;;1.35;1.20;;;;;;;;;;5063106;28;20032;-79
2023/08/06 06:26:45;;;;;;;1.77;1.50;;;;;;;;;;5069608;28;20029;-79
2023/08/06 06:29:11;;;;;;;1.33;1.20;;;;;;;;;;5068734;28;20028;-79
2023/08/06 06:31:37;;;;;;;1.42;1.33;;;;;;;;;;5061740;28;20024;-79
2023/08/06 06:34:03;;;;;;;1.20;1.10;;;;;;;;;;5058960;28;20020;-80
2023/08/06 06:36:29;;;;;;;1.42;1.33;;;;;;;;;;5061321;28;20033;-80
2023/08/06 06:38:55;;;;;;;1.70;1.35;;;;;;;;;;5047125;28;20713;-80
2023/08/06 06:41:21;;;;;;;1.60;1.40;;;;;;;;;;5049787;28;20048;-80
2023/08/06 06:43:47;;;;;;;0.82;0.82;;;;;;;;;;5056515;28;20029;-80
2023/08/06 06:46:13;;;;;;;1.70;1.40;;;;;;;;;;5059999;28;20024;-79
2023/08/06 06:48:39;;;;;;;1.40;1.30;;;;;;;;;;5050504;28;20770;-79
2023/08/06 06:51:05;;;;;;;1.30;1.20;;;;;;;;;;5049601;28;20034;-75
2023/08/06 06:53:31;;;;;;;1.92;1.30;;;;;;;;;;5052886;28;20434;-81
2023/08/06 06:56:01;;;;;;;1.52;1.30;;;;;;;;;;5059271;28;20028;-75
2023/08/06 06:58:27;;;;;;;1.27;1.17;;;;;;;;;;5063752;28;20066;-83
2023/08/06 07:00:53;;;;;;;1.83;1.20;;;;;;;;;;5066163;28;20028;-83
2023/08/06 07:03:20;;;;;;;1.27;1.10;;;;;;;;;;5057507;28;20373;-82
2023/08/06 07:05:46;;;;;;;1.77;1.33;;;;;;;;;;5052890;28;20054;-82
2023/08/06 07:08:12;;;;;;;2.13;1.50;;;;;;;;;;5054028;28;20112;-82
2023/08/06 07:10:38;;;;;;;1.60;1.20;;;;;;;;;;5057758;28;20028;-82
2023/08/06 07:13:04;;;;;;;2.15;1.38;;;;;;;;;;5063112;28;20501;-82
2023/08/06 07:15:30;;;;;;;2.30;1.52;;;;;;;;;;5059523;28;20036;-83
2023/08/06 07:17:56;;;;;;;2.40;1.58;;;;;;;;;;5057483;28;20107;-81
2023/08/06 07:20:22;;;;;;;1.20;1.10;;;;;;;;;;5056241;28;20045;-82
2023/08/06 07:22:48;;;;;;;1.80;1.25;;;;;;;;;;5061757;28;20029;-75
2023/08/06 07:25:14;;;;;;;2.65;1.70;;;;;;;;;;5052190;28;20025;-76
2023/08/06 07:27:40;;;;;;;1.55;1.45;;;;;;;;;;5057754;28;20028;-81
2023/08/06 07:30:06;;;;;;;2.03;1.40;;;;;;;;;;5055016;28;20017;-81
2023/08/06 07:32:32;;;;;;;2.25;1.63;;;;;;;;;;5054653;28;20021;-81
2023/08/06 07:35:00;;;;;;;2.58;1.50;;;;;;;;;;5057230;28;20544;-81
2023/08/06 07:37:28;;;;;;;1.48;1.38;;;;;;;;;;5055488;28;20059;-81
2023/08/06 07:39:54;;;;;;;2.05;1.65;;;;;;;;;;5057282;28;20082;-81
2023/08/06 07:42:20;;;;;;;2.78;1.77;;;;;;;;;;5064645;28;20479;-81
2023/08/06 07:44:51;;;;;;;3.08;1.70;;;;;;;;;;5051534;28;20437;-82
2023/08/06 07:47:16;;;;;;;1.77;1.52;;;;;;;;;;5062330;28;20029;-82
2023/08/06 07:49:43;;;;;;;4.28;1.33;;;;;;;;;;5064282;28;20387;-85
2023/08/06 07:52:08;;;;;;;2.58;1.80;;;;;;;;;;5051468;28;20024;-84
2023/08/06 07:54:37;;;;;;;2.03;1.77;;;;;;;;;;5056875;28;20430;-90
2023/08/06 07:57:04;;;;;;;2.95;1.70;;;;;;;;;;5053689;28;20036;-84
2023/08/06 07:59:30;;;;;;;2.38;1.90;;;;;;;;;;5059806;28;20024;-83
2023/08/06 08:01:56;;;;;;;2.15;1.55;;;;;;;;;;5051745;28;20033;-86
2023/08/06 08:04:22;;;;;;;6.90;2.08;;;;;;;;;;5060699;28;20029;-80
2023/08/06 08:06:48;;;;;;;2.10;1.70;;;;;;;;;;5050198;28;20044;-81
2023/08/06 08:09:14;;;;;;;2.00;1.65;;;;;;;;;;5069244;28;20017;-78
2023/08/06 08:11:40;;;;;;;2.05;1.52;;;;;;;;;;5057345;28;20046;-79
2023/08/06 08:14:06;;;;;;;2.03;1.70;;;;;;;;;;5053064;28;20039;-78
2023/08/06 08:16:33;;;;;;;2.97;1.65;;;;;;;;;;5058375;28;20547;-79
2023/08/06 08:18:59;;;;;;;4.22;1.75;;;;;;;;;;5051778;28;20576;-79
2023/08/06 08:21:25;;;;;;;2.63;1.77;;;;;;;;;;5062627;28;20044;-79
2023/08/06 08:23:51;;;;;;;1.70;1.42;;;;;;;;;;5063597;28;20033;-78
2023/08/06 08:26:17;;;;;;;3.03;1.67;;;;;;;;;;5052657;28;20029;-78
2023/08/06 08:28:43;;;;;;;1.90;1.70;;;;;;;;;;5059648;28;20025;-80
2023/08/06 08:31:11;;;;;;;1.98;1.50;;;;;;;;;;5056474;28;20060;-79
2023/08/06 08:33:37;;;;;;;2.45;1.48;;;;;;;;;;5052134;28;20471;-79
2023/08/06 08:36:03;;;;;;;1.95;1.55;;;;;;;;;;5060227;28;20111;-79
2023/08/06 08:38:29;;;;;;;2.15;1.83;;;;;;;;;;5055688;28;20028;-81
2023/08/06 08:40:55;;;;;;;2.58;2.10;;;;;;;;;;5062641;28;20025;-79
2023/08/06 08:43:22;;;;;;;2.65;1.63;;;;;;;;;;5052991;28;20477;-80
2023/08/06 08:45:50;;;;;;;2.08;1.63;;;;;;;;;;5054452;28;20033;-77
2023/08/06 08:48:16;;;;;;;1.95;1.70;;;;;;;;;;5052894;28;20365;-79
2023/08/06 08:50:45;;;;;;;3.22;1.83;;;;;;;;;;5059393;28;20020;-80
2023/08/06 08:53:11;;;;;;;3.42;2.17;;;;;;;;;;5059294;28;20072;-82
2023/08/06 08:55:38;;;;;;;2.55;1.58;;;;;;;;;;5069351;28;20141;-79
2023/08/06 08:58:04;;;;;;;1.90;1.75;;;;;;;;;;5057913;28;20032;-80
2023/08/06 09:00:30;;;;;;;2.47;1.67;;;;;;;;;;5051218;28;20131;-79
2023/08/06 09:02:57;;;;;;;1.90;1.60;;;;;;;;;;5056495;28;20056;-79
2023/08/06 09:05:24;;;;;;;2.33;1.60;;;;;;;;;;5050464;28;20575;-82
2023/08/06 09:07:52;;;;;;;2.17;1.77;;;;;;;;;;5056483;28;20056;-83
2023/08/06 09:10:19;;;;;;;2.10;1.60;;;;;;;;;;5061476;28;20360;-80
2023/08/06 09:12:45;;;;;;;2.08;1.88;;;;;;;;;;5065927;28;20021;-80
2023/08/06 09:15:11;;;;;;;1.65;1.52;;;;;;;;;;5062209;28;20120;-81
2023/08/06 09:17:37;;;;;;;1.65;1.55;;;;;;;;;;5055873;28;20040;-78
2023/08/06 09:20:13;;;;;;;1.90;1.70;;;;;;;;;;5058806;28;20024;-81
2023/08/06 09:22:39;;;;;;;2.08;1.70;;;;;;;;;;5052181;28;20050;-80
2023/08/06 09:25:09;;;;;;;2.92;1.90;;;;;;;;;;5056655;28;20051;-80
2023/08/06 09:27:36;;;;;;;1.70;1.60;;;;;;;;;;5062155;28;20024;-83
2023/08/06 09:30:14;;;;;;;1.77;1.50;;;;;;;;;;5053652;28;20102;-78
2023/08/06 09:32:59;;;;;;;2.10;1.80;;;;;;;;;;5052960;28;20059;-86
2023/08/06 09:35:25;;;;;;;4.10;1.92;;;;;;;;;;5052469;28;20053;-76
2023/08/06 09:37:51;;;;;;;2.85;1.98;;;;;;;;;;5050691;28;20467;-80
2023/08/06 09:40:36;;;;;;;2.15;1.80;;;;;;;;;;5069467;28;20035;-76
2023/08/06 09:43:03;;;;;;;10.18;1.90;;;;;;;;;;5064026;28;20033;-79
2023/08/06 09:45:34;;;;;;;6.10;2.17;;;;;;;;;;5064119;28;20028;-78
2023/08/06 09:48:01;;;;;;;3.13;2.40;;;;;;;;;;5055885;28;20387;-78
2023/08/06 09:50:31;;;;;;;3.30;2.47;;;;;;;;;;5067167;28;20101;-79
2023/08/06 09:52:57;;;;;;;3.58;2.53;;;;;;;;;;5051433;28;20054;-76
2023/08/06 09:55:24;;;;;;;3.33;2.60;;;;;;;;;;5052748;28;20487;-82
2023/08/06 09:57:51;;;;;;;15.45;3.78;;;;;;;;;;5060938;28;20020;-81
2023/08/06 10:00:18;;;;;;;17.65;3.85;;;;;;;;;;5054201;28;20074;-77
2023/08/06 10:02:44;;;;;;;6.13;3.05;;;;;;;;;;5061830;28;20055;-90
2023/08/06 10:05:10;;;;;;;7.25;2.40;;;;;;;;;;5054124;28;20043;-82
2023/08/06 10:07:38;;;;;;;9.80;2.95;;;;;;;;;;5051198;28;20025;-78
2023/08/06 10:10:05;;;;;;;5.80;2.72;;;;;;;;;;5050782;28;20023;-79
2023/08/06 10:12:33;;;;;;;2.55;1.98;;;;;;;;;;5061910;28;20381;-79
2023/08/06 10:15:01;;;;;;;7.43;3.45;;;;;;;;;;5055102;28;20156;-82
2023/08/06 10:17:28;;;;;;;4.32;2.78;;;;;;;;;;5057061;28;20024;-85
2023/08/06 10:19:57;;;;;;;2.92;2.00;;;;;;;;;;5066102;28;20031;-78
2023/08/06 10:22:24;;;;;;;2.95;2.30;;;;;;;;;;5059732;28;20502;-77
2023/08/06 10:24:51;;;;;;;2.25;1.90;;;;;;;;;;5063987;28;20020;-77
2023/08/06 10:27:20;;;;;;;3.58;2.63;;;;;;;;;;5056813;28;20025;-75
2023/08/06 10:29:46;;;;;;;3.10;1.90;;;;;;;;;;5055913;28;20021;-75
2023/08/06 10:32:12;;;;;;;2.55;1.92;;;;;;;;;;5057024;28;20127;-84
2023/08/06 10:34:57;;;;;;;2.25;1.55;;;;;;;;;;5055964;28;20558;-86
2023/08/06 10:37:23;;;;;;;1.77;1.60;;;;;;;;;;5057422;28;20028;-78
2023/08/06 10:39:50;;;;;;;1.77;1.60;;;;;;;;;;5052444;28;20471;-74
2023/08/06 10:42:20;;;;;;;2.38;1.85;;;;;;;;;;5055331;28;20491;-85
2023/08/06 10:45:05;;;;;;;2.38;1.73;;;;;;;;;;5052604;28;20047;-74
2023/08/06 10:47:39;;;;;;;1.40;1.30;;;;;;;;;;5064801;28;20036;-75
2023/08/06 10:50:05;;;;;;;2.72;1.88;;;;;;;;;;5058915;28;20029;-74
2023/08/06 10:52:31;;;;;;;2.67;1.90;;;;;;;;;;5053741;28;20566;-75
2023/08/06 10:54:57;;;;;;;2.22;1.58;;;;;;;;;;5054554;28;20029;-75
2023/08/06 10:57:24;;;;;;;1.80;1.45;;;;;;;;;;5058027;28;20074;-75
2023/08/06 10:59:50;;;;;;;2.65;1.88;;;;;;;;;;5054303;28;20425;-76
2023/08/06 11:02:17;;;;;;;2.78;2.20;;;;;;;;;;5058137;28;20035;-76
2023/08/06 11:04:43;;;;;;;2.20;1.52;;;;;;;;;;5050054;28;20025;-76
2023/08/06 11:07:09;;;;;;;2.72;2.00;;;;;;;;;;5055155;28;20033;-75
2023/08/06 11:09:35;;;;;;;2.42;1.60;;;;;;;;;;5070220;28;20021;-75
2023/08/06 11:12:01;;;;;;;2.35;1.73;;;;;;;;;;5056929;28;20062;-74
2023/08/06 11:14:27;;;;;;;1.75;1.52;;;;;;;;;;5060038;28;20614;-77
2023/08/06 11:16:54;;;;;;;2.67;1.98;;;;;;;;;;5057857;28;20024;-77
2023/08/06 11:19:23;;;;;;;2.20;1.75;;;;;;;;;;5060720;28;20112;-77
2023/08/06 11:21:50;;;;;;;2.13;1.85;;;;;;;;;;5061513;28;20065;-77
2023/08/06 11:24:16;;;;;;;2.30;2.00;;;;;;;;;;5057785;28;20148;-78
2023/08/06 11:26:44;;;;;;;3.28;2.03;;;;;;;;;;5052303;28;20530;-76
2023/08/06 11:29:10;;;;;;;3.08;2.20;;;;;;;;;;5054440;28;20036;-76
2023/08/06 11:31:36;;;;;;;3.50;2.00;;;;;;;;;;5054845;28;20396;-78
2023/08/06 11:34:03;;;;;;;2.38;1.88;;;;;;;;;;5063267;28;20036;-85
2023/08/06 11:36:32;;;;;;;3.83;1.95;;;;;;;;;;5046454;28;20031;-77
2023/08/06 11:39:02;;;;;;;2.33;1.80;;;;;;;;;;5064656;28;20459;-79
2023/08/06 11:41:29;;;;;;;2.95;1.83;;;;;;;;;;5065616;28;20032;-77
2023/08/06 11:43:55;;;;;;;2.95;2.10;;;;;;;;;;5068416;28;20052;-76
2023/08/06 11:46:23;;;;;;;2.30;1.83;;;;;;;;;;5057518;28;20040;-75
2023/08/06 11:48:55;;;;;;;3.13;2.00;;;;;;;;;;5057353;28;20029;-75
2023/08/06 11:51:25;;;;;;;4.13;2.30;;;;;;;;;;5061099;28;20058;-75
2023/08/06 11:53:54;;;;;;;3.20;2.17;;;;;;;;;;5066735;28;20120;-74
2023/08/06 11:56:20;;;;;;;3.58;2.00;;;;;;;;;;5058757;28;20025;-76
2023/08/06 11:58:46;;;;;;;3.90;2.05;;;;;;;;;;5067354;28;20039;-82
2023/08/06 12:01:14;;;;;;;3.53;1.80;;;;;;;;;;5058666;28;20032;-78
2023/08/06 12:03:43;;;;;;;2.80;1.90;;;;;;;;;;5064457;28;20028;-77
2023/08/06 12:06:09;;;;;;;2.97;2.15;;;;;;;;;;5056738;28;20055;-77
2023/08/06 12:08:35;;;;;;;2.58;2.00;;;;;;;;;;5056877;28;20017;-76
2023/08/06 12:11:01;;;;;;;2.60;2.08;;;;;;;;;;5061893;28;20445;-77
2023/08/06 12:13:30;;;;;;;2.30;1.98;;;;;;;;;;5062119;28;21642;-78
2023/08/06 12:15:57;;;;;;;2.78;2.30;;;;;;;;;;5060305;28;20429;-78
2023/08/06 12:18:23;;;;;;;2.90;2.00;;;;;;;;;;5060080;28;20032;-78
2023/08/06 12:20:49;;;;;;;2.25;1.92;;;;;;;;;;5055018;28;20067;-76
2023/08/06 12:23:15;;;;;;;3.08;2.13;;;;;;;;;;5060079;28;20510;-76
2023/08/06 12:25:42;;;;;;;5.22;2.20;;;;;;;;;;5066555;28;20037;-77
2023/08/06 12:28:09;;;;;;;2.75;2.00;;;;;;;;;;5069077;28;20399;-76
2023/08/06 12:30:35;;;;;;;3.38;2.35;;;;;;;;;;5057293;28;20036;-78
2023/08/06 12:33:01;;;;;;;3.33;2.17;;;;;;;;;;5059449;28;20036;-75
2023/08/06 12:35:27;;;;;;;3.42;2.38;;;;;;;;;;5051011;28;20476;-74
2023/08/06 12:37:54;;;;;;;2.90;2.10;;;;;;;;;;5057391;28;20032;-77
2023/08/06 12:40:20;;;;;;;3.30;2.30;;;;;;;;;;5052847;28;20819;-75
2023/08/06 12:42:47;;;;;;;2.67;2.00;;;;;;;;;;5063141;28;20112;-76
2023/08/06 12:45:14;;;;;;;2.25;1.95;;;;;;;;;;5058049;28;20055;-77
2023/08/06 12:47:40;;;;;;;2.85;1.90;;;;;;;;;;5064466;28;20037;-78
2023/08/06 12:50:17;;;;;;;4.70;2.30;;;;;;;;;;5053458;28;20245;-76
2023/08/06 12:52:43;;;;;;;4.05;2.20;;;;;;;;;;5063194;28;20032;-78
2023/08/06 12:55:08;;;;;;;3.53;2.40;;;;;;;;;;5055449;28;20028;-75
2023/08/06 12:57:34;;;;;;;3.17;2.20;;;;;;;;;;5053640;28;20024;-76
2023/08/06 13:00:00;;;;;;;2.83;2.20;;;;;;;;;;5059464;28;20081;-77
2023/08/06 13:02:29;;;;;;;3.20;2.03;;;;;;;;;;5065184;28;20028;-76
2023/08/06 13:04:55;;;;;;;3.45;2.20;;;;;;;;;;5062145;28;20487;-77
2023/08/06 13:07:21;;;;;;;2.90;2.20;;;;;;;;;;5055454;28;20021;-75
2023/08/06 13:09:47;;;;;;;2.40;2.15;;;;;;;;;;5068310;28;20399;-78
2023/08/06 13:12:13;;;;;;;3.65;2.45;;;;;;;;;;5052469;28;20015;-76
2023/08/06 13:14:39;;;;;;;3.47;2.40;;;;;;;;;;5058806;28;20721;-76
2023/08/06 13:17:07;;;;;;;3.17;2.30;;;;;;;;;;5065454;28;20025;-78
2023/08/06 13:19:33;;;;;;;3.47;2.20;;;;;;;;;;5054901;28;20024;-77
2023/08/06 13:22:05;;;;;;;3.17;2.08;;;;;;;;;;5068401;28;20402;-78
2023/08/06 13:24:31;;;;;;;3.15;2.30;;;;;;;;;;5053209;28;20479;-78
2023/08/06 13:26:57;;;;;;;3.35;2.35;;;;;;;;;;5068073;28;20052;-78
2023/08/06 13:29:23;;;;;;;3.42;2.38;;;;;;;;;;5059645;28;20029;-78
2023/08/06 13:31:49;;;;;;;2.35;1.75;;;;;;;;;;5056403;28;21719;-77
2023/08/06 13:34:16;;;;;;;2.63;2.25;;;;;;;;;;5049465;28;20112;-77
2023/08/06 13:36:42;;;;;;;3.80;2.28;;;;;;;;;;5052938;28;20036;-78
2023/08/06 13:39:08;;;;;;;4.45;2.00;;;;;;;;;;5058403;28;20467;-78
2023/08/06 13:41:34;;;;;;;3.13;2.00;;;;;;;;;;5048520;28;20039;-79
2023/08/06 13:44:00;;;;;;;2.63;1.90;;;;;;;;;;5056386;28;20106;-74
2023/08/06 13:46:26;;;;;;;2.10;1.83;;;;;;;;;;5060477;28;20066;-75
2023/08/06 13:48:52;;;;;;;2.28;1.75;;;;;;;;;;5058164;28;20033;-75
2023/08/06 13:51:18;;;;;;;2.65;2.00;;;;;;;;;;5051279;28;20816;-76
2023/08/06 13:53:45;;;;;;;3.45;2.33;;;;;;;;;;5060076;28;20024;-75
2023/08/06 13:56:11;;;;;;;2.92;1.70;;;;;;;;;;5045759;28;20021;-77
2023/08/06 13:58:37;;;;;;;2.38;1.67;;;;;;;;;;5052154;28;20024;-75
2023/08/06 14:01:03;;;;;;;2.45;1.60;;;;;;;;;;5057014;28;20115;-78
2023/08/06 14:03:49;;;;;;;1.77;1.52;;;;;;;;;;5052440;28;20100;-78
2023/08/06 14:06:18;;;;;;;2.22;1.55;;;;;;;;;;5051180;28;20032;-83
2023/08/06 14:08:44;;;;;;;2.03;1.52;;;;;;;;;;5051812;28;20111;-76
2023/08/06 14:11:10;;;;;;;1.67;1.40;;;;;;;;;;5056348;28;20036;-76
2023/08/06 14:13:36;;;;;;;2.40;1.45;;;;;;;;;;5056016;28;20070;-76
2023/08/06 14:16:02;;;;;;;2.67;1.90;;;;;;;;;;5058255;28;20070;-76
2023/08/06 14:18:28;;;;;;;2.10;1.45;;;;;;;;;;5054916;28;20478;-76
2023/08/06 14:20:54;;;;;;;2.70;1.77;;;;;;;;;;5056765;28;20041;-82
2023/08/06 14:23:20;;;;;;;2.97;2.03;;;;;;;;;;5054283;28;20080;-75
2023/08/06 14:25:46;;;;;;;2.08;1.80;;;;;;;;;;5054024;28;20473;-74
2023/08/06 14:28:12;;;;;;;4.10;1.70;;;;;;;;;;5058416;28;20083;-75
2023/08/06 14:30:38;;;;;;;1.45;1.20;;;;;;;;;;5051732;28;20426;-75
2023/08/06 14:33:10;;;;;;;1.60;1.50;;;;;;;;;;5048810;28;20028;-76
2023/08/06 14:35:36;;;;;;;2.25;1.50;;;;;;;;;;5055054;28;20120;-76
2023/08/06 14:38:02;;;;;;;1.67;1.52;;;;;;;;;;5050979;28;20029;-76
2023/08/06 14:40:33;;;;;;;4.90;2.03;;;;;;;;;;5049966;28;20494;-76